Time;durP1;ratioP1;P1;durP2;ratioP2;P2;SDS_P1;SDS_P2;PMS_P1;PMS_P2;Temp;Humidity;BMP_temperature;BMP_pressure;BME280_temperature;BME280_humidity;BME280_pressure;Samples;Min_cycle;Max_cycle;Signal;HPM_P1;HPM_P2
2021/08/03 00:00:54;;;;;;;0.50;0.50;;;11.50;91.50;;;;;;2057776;28;20732;-65
2021/08/03 00:01:59;;;;;;;1.85;0.43;;;11.50;91.70;;;;;;2064583;28;20209;-65
2021/08/03 00:03:03;;;;;;;0.30;0.30;;;11.40;91.70;;;;;;2065001;28;20182;-65
2021/08/03 00:04:12;;;;;;;0.60;0.60;;;11.40;91.70;;;;;;2064571;28;20201;-65
2021/08/03 00:05:20;;;;;;;0.50;0.50;;;11.40;91.80;;;;;;2064429;28;20217;-65
2021/08/03 00:06:26;;;;;;;0.40;0.40;;;11.40;91.90;;;;;;2057516;28;20169;-65
2021/08/03 00:07:28;;;;;;;0.28;0.28;;;11.40;92.00;;;;;;2057064;28;20194;-65
2021/08/03 00:08:35;;;;;;;0.45;0.45;;;11.30;92.20;;;;;;2064518;28;20196;-65
2021/08/03 00:09:37;;;;;;;0.60;0.60;;;11.30;92.30;;;;;;2064593;28;20216;-65
2021/08/03 00:10:38;;;;;;;0.75;0.55;;;11.30;92.50;;;;;;2064351;28;20189;-65
2021/08/03 00:11:44;;;;;;;1.13;0.53;;;11.30;92.50;;;;;;2064244;28;20174;-65
2021/08/03 00:12:51;;;;;;;2.65;0.90;;;11.30;92.50;;;;;;2064658;28;20409;-65
2021/08/03 00:13:52;;;;;;;0.50;0.50;;;11.30;92.40;;;;;;2064964;28;20236;-64
2021/08/03 00:14:54;;;;;;;0.63;0.63;;;11.30;92.40;;;;;;2065040;28;20205;-65
2021/08/03 00:16:08;;;;;;;0.82;0.82;;;11.30;92.40;;;;;;2065026;28;20213;-65
2021/08/03 00:17:15;;;;;;;0.50;0.50;;;11.40;92.30;;;;;;2064997;28;20434;-64
2021/08/03 00:18:18;;;;;;;0.30;0.30;;;11.40;92.00;;;;;;2064870;28;20523;-65
2021/08/03 00:19:26;;;;;;;0.60;0.60;;;11.40;91.90;;;;;;2056100;28;20190;-65
2021/08/03 00:20:27;;;;;;;1.25;0.88;;;11.40;91.90;;;;;;2057318;28;20168;-65
2021/08/03 00:21:28;;;;;;;0.47;0.47;;;11.40;91.80;;;;;;2064336;28;20174;-65
2021/08/03 00:22:30;;;;;;;0.37;0.37;;;11.40;91.70;;;;;;2064368;28;20593;-65
2021/08/03 00:23:31;;;;;;;0.73;0.63;;;11.40;91.70;;;;;;2064352;28;20181;-65
2021/08/03 00:24:33;;;;;;;0.73;0.73;;;11.50;91.70;;;;;;2064178;28;20217;-65
2021/08/03 00:25:34;;;;;;;0.45;0.45;;;11.50;91.60;;;;;;2064391;28;20204;-65
2021/08/03 00:26:37;;;;;;;0.53;0.50;;;11.40;91.70;;;;;;2056464;28;20190;-65
2021/08/03 00:27:40;;;;;;;0.82;0.82;;;11.40;91.70;;;;;;2064193;28;20425;-64
2021/08/03 00:28:45;;;;;;;0.43;0.43;;;11.40;91.70;;;;;;2064940;28;20205;-65
2021/08/03 00:29:46;;;;;;;0.98;0.65;;;11.30;91.70;;;;;;2064812;28;20177;-65
2021/08/03 00:30:49;;;;;;;0.40;0.40;;;11.30;91.80;;;;;;2064974;28;20858;-65
2021/08/03 00:31:51;;;;;;;0.88;0.88;;;11.20;91.80;;;;;;2064360;28;20608;-65
2021/08/03 00:32:53;;;;;;;0.75;0.75;;;11.20;91.80;;;;;;2064426;28;20265;-65
2021/08/03 00:33:56;;;;;;;0.50;0.50;;;11.20;91.90;;;;;;2065098;28;20179;-65
2021/08/03 00:34:57;;;;;;;0.80;0.80;;;11.20;91.80;;;;;;2064854;28;20655;-65
2021/08/03 00:35:57;;;;;;;0.67;0.67;;;11.10;91.90;;;;;;2065179;28;20210;-65
2021/08/03 00:36:58;;;;;;;0.70;0.70;;;11.10;91.90;;;;;;2064311;28;20641;-64
2021/08/03 00:38:00;;;;;;;0.40;0.40;;;11.10;92.00;;;;;;2064270;28;20179;-65
2021/08/03 00:39:01;;;;;;;0.35;0.35;;;11.10;92.00;;;;;;2065191;28;20193;-65
2021/08/03 00:40:05;;;;;;;0.60;0.60;;;11.00;92.00;;;;;;2064388;28;20335;-65
2021/08/03 00:41:12;;;;;;;0.52;0.52;;;11.00;92.00;;;;;;2056505;28;20674;-65
2021/08/03 00:42:13;;;;;;;0.30;0.30;;;11.10;91.90;;;;;;2057106;28;20702;-65
2021/08/03 00:43:13;;;;;;;0.50;0.50;;;11.10;91.90;;;;;;2064346;28;20171;-65
2021/08/03 00:44:14;;;;;;;0.50;0.50;;;11.10;91.90;;;;;;2064952;28;20638;-65
2021/08/03 00:45:15;;;;;;;0.50;0.50;;;11.00;92.00;;;;;;2064790;28;20197;-65
2021/08/03 00:46:15;;;;;;;0.50;0.50;;;11.00;92.00;;;;;;2064336;28;20328;-65
2021/08/03 00:47:19;;;;;;;0.33;0.33;;;11.00;92.00;;;;;;2064237;28;20190;-65
2021/08/03 00:48:20;;;;;;;0.32;0.32;;;11.00;92.00;;;;;;2065087;28;20197;-65
2021/08/03 00:49:20;;;;;;;0.57;0.57;;;11.00;92.00;;;;;;2064843;28;20178;-65
2021/08/03 00:50:21;;;;;;;0.73;0.73;;;11.00;92.10;;;;;;2065163;28;20179;-65
2021/08/03 00:51:22;;;;;;;0.60;0.60;;;11.10;92.00;;;;;;2064801;28;20185;-65
2021/08/03 00:52:23;;;;;;;0.40;0.40;;;11.00;92.00;;;;;;2065075;28;20181;-65
2021/08/03 00:53:23;;;;;;;1.30;0.80;;;11.10;91.90;;;;;;2065175;28;20588;-64
2021/08/03 00:54:24;;;;;;;0.30;0.30;;;11.10;91.80;;;;;;2064978;28;20179;-65
2021/08/03 00:55:25;;;;;;;0.60;0.60;;;11.10;91.80;;;;;;2065093;28;20190;-65
2021/08/03 00:56:26;;;;;;;0.67;0.67;;;11.00;91.90;;;;;;2065072;28;20273;-65
2021/08/03 00:57:27;;;;;;;1.60;1.07;;;11.00;91.80;;;;;;2064878;28;20269;-65
2021/08/03 00:58:28;;;;;;;0.30;0.30;;;11.00;91.80;;;;;;2064444;28;20209;-65
2021/08/03 00:59:29;;;;;;;0.28;0.28;;;10.90;91.80;;;;;;2064324;28;20186;-65
2021/08/03 01:00:29;;;;;;;0.43;0.43;;;10.90;91.90;;;;;;2064982;28;20190;-65
2021/08/03 01:01:30;;;;;;;2.13;0.90;;;10.90;92.10;;;;;;2064781;28;20897;-65
2021/08/03 01:02:31;;;;;;;0.60;0.60;;;10.80;92.20;;;;;;2064779;28;20272;-65
2021/08/03 01:03:32;;;;;;;0.27;0.27;;;10.80;92.30;;;;;;2064297;28;20186;-65
2021/08/03 01:04:34;;;;;;;0.40;0.40;;;10.80;92.40;;;;;;2064352;28;20189;-65
2021/08/03 01:05:56;;;;;;;14.98;0.70;;;10.80;92.30;;;;;;2064936;28;20179;-64
2021/08/03 01:07:23;;;;;;;0.60;0.60;;;10.80;92.30;;;;;;2064613;28;20180;-64
2021/08/03 01:08:55;;;;;;;0.43;0.43;;;10.80;92.40;;;;;;2056463;28;20254;-64
2021/08/03 01:10:13;;;;;;;0.50;0.50;;;10.80;92.50;;;;;;2067200;28;20162;-64
2021/08/03 01:11:36;;;;;;;0.20;0.20;;;10.80;92.60;;;;;;2070399;28;20162;-64
2021/08/03 01:12:55;;;;;;;0.60;0.60;;;10.80;93.10;;;;;;2064176;28;20250;-64
2021/08/03 01:14:11;;;;;;;0.40;0.30;;;10.80;92.60;;;;;;2064323;28;20837;-64
2021/08/03 01:15:16;;;;;;;1.85;0.40;;;10.80;92.50;;;;;;2064461;28;20209;-64
2021/08/03 01:16:25;;;;;;;0.77;0.77;;;10.80;92.50;;;;;;2064960;28;20668;-64
2021/08/03 01:18:10;;;;;;;0.63;0.52;;;10.80;92.40;;;;;;2064041;28;20570;-64
2021/08/03 01:20:09;;;;;;;0.50;0.50;;;10.80;92.50;;;;;;2064219;28;20170;-64
2021/08/03 01:21:39;;;;;;;0.77;0.77;;;10.70;92.50;;;;;;2042562;28;20200;-64
2021/08/03 01:23:10;;;;;;;0.52;0.52;;;10.70;92.90;;;;;;2063989;28;20229;-64
2021/08/03 01:24:26;;;;;;;1.80;0.60;;;10.60;92.70;;;;;;2064399;28;20194;-64
2021/08/03 01:26:03;;;;;;;0.20;0.20;;;10.60;92.70;;;;;;2064832;28;20178;-64
2021/08/03 01:27:18;;;;;;;0.30;0.30;;;10.60;92.80;;;;;;2064058;28;20174;-64
2021/08/03 01:28:36;;;;;;;0.95;0.90;;;10.60;92.80;;;;;;2057929;28;20183;-64
2021/08/03 01:29:38;;;;;;;0.47;0.47;;;10.50;92.90;;;;;;2058273;28;20181;-65
2021/08/03 01:30:46;;;;;;;0.57;0.57;;;10.60;92.90;;;;;;2056287;28;20561;-65
2021/08/03 01:31:52;;;;;;;0.80;0.80;;;10.60;93.00;;;;;;2057149;28;20223;-65
2021/08/03 01:32:56;;;;;;;0.65;0.60;;;10.60;92.90;;;;;;2057927;28;20596;-65
2021/08/03 01:34:06;;;;;;;0.68;0.57;;;10.60;92.90;;;;;;2065582;28;20612;-64
2021/08/03 01:35:08;;;;;;;0.80;0.80;;;10.60;92.90;;;;;;2058806;28;20198;-65
2021/08/03 01:36:11;;;;;;;0.28;0.28;;;10.60;92.90;;;;;;2057703;28;20211;-64
2021/08/03 01:37:18;;;;;;;0.57;0.57;;;10.60;93.00;;;;;;2057785;28;20179;-65
2021/08/03 01:38:21;;;;;;;0.30;0.30;;;10.60;93.00;;;;;;2058527;28;20218;-65
2021/08/03 01:39:35;;;;;;;0.75;0.60;;;10.60;93.00;;;;;;2057713;28;20210;-65
2021/08/03 01:40:41;;;;;;;0.32;0.32;;;10.60;93.00;;;;;;2065719;28;20165;-65
2021/08/03 01:41:46;;;;;;;0.38;0.38;;;10.60;93.00;;;;;;2065516;28;20177;-65
2021/08/03 01:42:49;;;;;;;0.65;0.60;;;10.60;93.00;;;;;;2058408;28;20171;-65
2021/08/03 01:43:50;;;;;;;0.52;0.52;;;10.60;93.00;;;;;;2057540;28;20179;-65
2021/08/03 01:44:57;;;;;;;1.27;0.65;;;10.60;92.90;;;;;;2065505;28;20597;-65
2021/08/03 01:45:58;;;;;;;0.30;0.30;;;10.60;92.80;;;;;;2065711;28;20435;-65
2021/08/03 01:47:02;;;;;;;0.63;0.63;;;10.60;92.80;;;;;;2057600;28;20559;-65
2021/08/03 01:48:04;;;;;;;0.43;0.43;;;10.60;92.80;;;;;;2057928;28;20278;-65
2021/08/03 01:49:05;;;;;;;0.40;0.40;;;10.60;92.80;;;;;;2057608;28;20183;-65
2021/08/03 01:50:09;;;;;;;0.65;0.65;;;10.60;92.80;;;;;;2065557;28;20178;-65
2021/08/03 01:51:10;;;;;;;0.40;0.40;;;10.60;92.70;;;;;;2057843;28;20494;-66
2021/08/03 01:52:11;;;;;;;0.47;0.43;;;10.60;92.60;;;;;;2065682;28;20182;-68
2021/08/03 01:53:12;;;;;;;0.90;0.90;;;10.60;92.60;;;;;;2065369;28;20226;-67
2021/08/03 01:54:14;;;;;;;0.53;0.53;;;10.60;92.60;;;;;;2065394;28;20205;-64
2021/08/03 01:55:15;;;;;;;0.45;0.43;;;10.60;92.80;;;;;;2054555;28;20183;-65
2021/08/03 01:56:17;;;;;;;0.83;0.63;;;10.50;92.70;;;;;;2065483;28;20209;-65
2021/08/03 01:57:18;;;;;;;0.57;0.57;;;10.50;93.20;;;;;;2065476;28;20186;-66
2021/08/03 01:58:21;;;;;;;0.40;0.40;;;10.50;92.70;;;;;;2065518;28;20182;-65
2021/08/03 01:59:22;;;;;;;0.52;0.52;;;10.50;92.70;;;;;;2049589;28;20245;-65
2021/08/03 02:00:23;;;;;;;0.80;0.70;;;10.50;92.70;;;;;;2049878;28;20651;-65
2021/08/03 02:01:25;;;;;;;0.87;0.60;;;10.50;92.60;;;;;;2065389;28;20174;-65
2021/08/03 02:02:26;;;;;;;0.80;0.80;;;10.50;92.60;;;;;;2065489;28;20266;-64
2021/08/03 02:03:28;;;;;;;0.25;0.25;;;10.50;92.60;;;;;;2065449;28;20188;-65
2021/08/03 02:04:31;;;;;;;0.30;0.30;;;10.60;92.50;;;;;;2049481;28;20214;-65
2021/08/03 02:05:32;;;;;;;0.50;0.50;;;10.60;92.50;;;;;;2050068;28;20184;-65
2021/08/03 02:06:37;;;;;;;0.60;0.60;;;10.50;92.50;;;;;;2057558;28;20183;-65
2021/08/03 02:07:41;;;;;;;0.40;0.40;;;10.50;92.70;;;;;;2065258;28;20178;-65
2021/08/03 02:08:44;;;;;;;0.65;0.65;;;10.50;92.80;;;;;;2057825;28;20265;-65
2021/08/03 02:09:45;;;;;;;0.52;0.52;;;10.40;92.80;;;;;;2057628;28;20277;-65
2021/08/03 02:10:47;;;;;;;0.38;0.38;;;10.40;92.90;;;;;;2057332;28;20187;-65
2021/08/03 02:11:50;;;;;;;0.32;0.32;;;10.40;92.80;;;;;;2065252;28;20186;-65
2021/08/03 02:12:50;;;;;;;0.60;0.50;;;10.50;92.90;;;;;;2065345;28;20202;-65
2021/08/03 02:13:52;;;;;;;0.40;0.40;;;10.50;92.90;;;;;;2065386;28;20186;-65
2021/08/03 02:14:53;;;;;;;0.30;0.30;;;10.40;92.80;;;;;;2065505;28;20197;-65
2021/08/03 02:15:54;;;;;;;0.30;0.30;;;10.40;92.80;;;;;;2057387;28;20690;-65
2021/08/03 02:16:55;;;;;;;1.75;0.63;;;10.40;92.80;;;;;;2057355;28;20179;-65
2021/08/03 02:17:56;;;;;;;0.70;0.70;;;10.40;92.80;;;;;;2057496;28;20193;-65
2021/08/03 02:18:56;;;;;;;0.70;0.47;;;10.40;92.70;;;;;;2065317;28;20651;-64
2021/08/03 02:19:57;;;;;;;0.37;0.37;;;10.40;92.70;;;;;;2066029;28;20425;-65
2021/08/03 02:20:58;;;;;;;0.80;0.80;;;10.40;92.60;;;;;;2065735;28;20317;-65
2021/08/03 02:21:59;;;;;;;0.30;0.30;;;10.40;92.60;;;;;;2065924;28;20185;-65
2021/08/03 02:22:59;;;;;;;0.87;0.87;;;10.40;92.60;;;;;;2065353;28;20260;-65
2021/08/03 02:24:00;;;;;;;0.60;0.60;;;10.40;92.60;;;;;;2057142;28;20183;-65
2021/08/03 02:25:01;;;;;;;0.60;0.50;;;10.40;92.60;;;;;;2057185;28;20234;-65
2021/08/03 02:26:01;;;;;;;0.83;0.83;;;10.40;92.70;;;;;;2065389;28;20700;-65
2021/08/03 02:27:02;;;;;;;0.53;0.53;;;10.30;92.70;;;;;;2065728;28;20186;-65
2021/08/03 02:28:04;;;;;;;0.45;0.45;;;10.30;92.70;;;;;;2066031;28;20186;-65
2021/08/03 02:29:06;;;;;;;0.98;0.95;;;10.30;92.70;;;;;;2065890;28;20183;-65
2021/08/03 02:30:10;;;;;;;0.60;0.60;;;10.30;92.70;;;;;;2065858;28;20628;-65
2021/08/03 02:31:40;;;;;;;0.50;0.50;;;10.20;92.70;;;;;;2065212;28;20214;-64
2021/08/03 02:32:50;;;;;;;0.47;0.47;;;10.20;92.80;;;;;;2061261;28;20174;-65
2021/08/03 02:34:00;;;;;;;0.47;0.47;;;10.20;92.80;;;;;;2058685;28;20176;-65
2021/08/03 02:35:09;;;;;;;1.20;0.75;;;10.20;92.70;;;;;;2058380;28;20553;-65
2021/08/03 02:36:19;;;;;;;1.00;0.90;;;10.20;92.70;;;;;;2058386;28;20249;-65
2021/08/03 02:37:29;;;;;;;0.50;0.50;;;10.20;92.70;;;;;;2065260;28;20158;-65
2021/08/03 02:38:36;;;;;;;0.60;0.55;;;10.20;92.80;;;;;;2065511;28;20165;-64
2021/08/03 02:39:38;;;;;;;0.22;0.22;;;10.20;92.80;;;;;;2065369;28;20173;-65
2021/08/03 02:40:41;;;;;;;0.40;0.40;;;10.20;92.80;;;;;;2057225;28;20671;-65
2021/08/03 02:41:45;;;;;;;0.65;0.65;;;10.20;92.80;;;;;;2049771;28;20183;-65
2021/08/03 02:42:46;;;;;;;0.50;0.50;;;10.20;92.80;;;;;;2057554;28;20179;-64
2021/08/03 02:43:50;;;;;;;0.50;0.50;;;10.20;92.90;;;;;;2056248;28;20183;-64
2021/08/03 02:44:56;;;;;;;0.47;0.40;;;10.20;92.90;;;;;;2057249;28;20261;-65
2021/08/03 02:46:03;;;;;;;0.40;0.40;;;10.20;92.90;;;;;;2065478;28;20192;-65
2021/08/03 02:47:17;;;;;;;0.40;0.40;;;10.10;93.00;;;;;;2065072;28;20206;-65
2021/08/03 02:48:21;;;;;;;0.60;0.60;;;10.10;93.10;;;;;;2065503;28;20169;-65
2021/08/03 02:49:35;;;;;;;0.40;0.40;;;10.10;93.60;;;;;;2065031;28;20550;-65
2021/08/03 02:50:37;;;;;;;0.30;0.30;;;10.10;93.10;;;;;;2059187;28;20587;-65
2021/08/03 02:51:40;;;;;;;0.60;0.60;;;10.10;93.10;;;;;;2058497;28;20230;-65
2021/08/03 02:52:45;;;;;;;0.65;0.65;;;10.10;93.10;;;;;;2065261;28;20185;-65
2021/08/03 02:53:50;;;;;;;0.75;0.75;;;10.10;93.10;;;;;;2064903;28;20452;-65
2021/08/03 02:55:04;;;;;;;0.20;0.20;;;10.10;93.10;;;;;;2065148;28;20414;-65
2021/08/03 02:56:12;;;;;;;0.70;0.70;;;10.10;93.00;;;;;;2061940;28;20225;-65
2021/08/03 02:57:15;;;;;;;1.27;0.80;;;10.10;93.10;;;;;;2064849;28;20634;-64
2021/08/03 02:58:35;;;;;;;0.30;0.30;;;10.10;93.10;;;;;;2064725;28;20729;-65
2021/08/03 02:59:42;;;;;;;0.32;0.28;;;10.10;92.90;;;;;;2064864;28;20162;-65
2021/08/03 03:00:44;;;;;;;0.30;0.30;;;10.10;92.90;;;;;;2064877;28;20167;-66
2021/08/03 03:01:45;;;;;;;0.40;0.40;;;10.00;92.90;;;;;;2057152;28;20190;-65
2021/08/03 03:02:47;;;;;;;0.50;0.50;;;10.10;93.00;;;;;;2064921;28;20688;-65
2021/08/03 03:03:52;;;;;;;0.60;0.60;;;10.00;93.00;;;;;;2064768;28;20186;-65
2021/08/03 03:05:29;;;;;;;1.38;0.43;;;10.00;92.90;;;;;;2064840;28;20205;-64
2021/08/03 03:06:33;;;;;;;0.57;0.57;;;10.00;93.00;;;;;;2062783;28;20197;-65
2021/08/03 03:07:47;;;;;;;0.40;0.40;;;10.00;93.00;;;;;;2065371;28;20186;-65
2021/08/03 03:08:47;;;;;;;0.50;0.50;;;10.00;93.00;;;;;;2064895;28;20244;-65
2021/08/03 03:09:51;;;;;;;0.60;0.60;;;10.00;93.00;;;;;;2064878;28;20190;-65
2021/08/03 03:10:54;;;;;;;0.55;0.55;;;10.00;93.00;;;;;;2065113;28;20234;-65
2021/08/03 03:11:57;;;;;;;0.30;0.30;;;10.00;93.00;;;;;;2057444;28;20218;-65
2021/08/03 03:13:24;;;;;;;0.40;0.40;;;10.00;93.00;;;;;;2064926;28;20188;-64
2021/08/03 03:14:26;;;;;;;0.45;0.45;;;10.00;93.00;;;;;;2065461;28;20210;-65
2021/08/03 03:15:30;;;;;;;0.32;0.32;;;10.00;93.00;;;;;;2065752;28;20185;-65
2021/08/03 03:16:36;;;;;;;0.63;0.63;;;10.00;93.00;;;;;;2065550;28;20244;-65
2021/08/03 03:17:37;;;;;;;0.50;0.50;;;10.10;93.00;;;;;;2065472;28;20178;-65
2021/08/03 03:18:39;;;;;;;0.43;0.43;;;10.00;93.00;;;;;;2065606;28;20183;-65
2021/08/03 03:19:42;;;;;;;0.50;0.50;;;10.10;93.00;;;;;;2065083;28;20233;-64
2021/08/03 03:20:44;;;;;;;0.45;0.45;;;10.10;93.00;;;;;;2064920;28;20178;-65
2021/08/03 03:21:49;;;;;;;0.75;0.55;;;10.10;93.00;;;;;;2065146;28;20205;-65
2021/08/03 03:22:54;;;;;;;0.40;0.40;;;10.10;93.00;;;;;;2064890;28;20837;-65
2021/08/03 03:23:57;;;;;;;1.42;0.52;;;10.10;92.90;;;;;;2064949;28;20550;-65
2021/08/03 03:24:59;;;;;;;1.50;0.43;;;10.10;92.90;;;;;;2065069;28;20707;-65
2021/08/03 03:26:02;;;;;;;0.43;0.43;;;10.20;93.00;;;;;;2064930;28;20205;-65
2021/08/03 03:27:04;;;;;;;0.43;0.43;;;10.20;92.90;;;;;;2064906;28;20178;-65
2021/08/03 03:28:06;;;;;;;0.50;0.50;;;10.10;92.90;;;;;;2065698;28;20183;-64
2021/08/03 03:29:08;;;;;;;0.65;0.65;;;10.10;92.90;;;;;;2065231;28;20196;-69
2021/08/03 03:30:13;;;;;;;0.45;0.45;;;10.10;92.90;;;;;;2064730;28;20215;-65
2021/08/03 03:31:14;;;;;;;6.88;1.25;;;10.20;92.90;;;;;;2064554;28;20551;-65
2021/08/03 03:32:17;;;;;;;0.40;0.40;;;10.20;92.90;;;;;;2064715;28;20178;-65
2021/08/03 03:33:18;;;;;;;0.70;0.60;;;10.20;92.90;;;;;;2065344;28;20181;-65
2021/08/03 03:34:21;;;;;;;0.50;0.50;;;10.20;92.90;;;;;;2064853;28;20221;-65
2021/08/03 03:35:22;;;;;;;0.50;0.50;;;10.20;92.90;;;;;;2064776;28;20178;-65
2021/08/03 03:36:28;;;;;;;0.80;0.50;;;10.20;92.90;;;;;;2064635;28;20202;-65
2021/08/03 03:37:31;;;;;;;0.70;0.35;;;10.20;92.70;;;;;;2057138;28;20214;-64
2021/08/03 03:38:36;;;;;;;1.70;0.40;;;10.20;92.70;;;;;;2064684;28;20182;-65
2021/08/03 03:39:38;;;;;;;0.75;0.75;;;10.20;92.70;;;;;;2065255;28;20538;-65
2021/08/03 03:40:40;;;;;;;0.60;0.60;;;10.20;92.70;;;;;;2064502;28;20189;-65
2021/08/03 03:41:47;;;;;;;0.50;0.50;;;10.20;92.60;;;;;;2064269;28;20185;-64
2021/08/03 03:42:51;;;;;;;0.40;0.40;;;10.20;92.50;;;;;;2064348;28;20672;-65
2021/08/03 03:43:51;;;;;;;1.00;0.63;;;10.20;92.50;;;;;;2064326;28;20177;-65
2021/08/03 03:44:52;;;;;;;0.60;0.60;;;10.10;92.40;;;;;;2064259;28;20207;-65
2021/08/03 03:46:15;;;;;;;0.20;0.20;;;10.10;92.50;;;;;;2064349;28;20669;-64
2021/08/03 03:47:25;;;;;;;0.30;0.30;;;10.10;92.40;;;;;;2064242;28;20662;-64
2021/08/03 03:48:30;;;;;;;0.30;0.30;;;10.10;92.40;;;;;;2057576;28;20197;-64
2021/08/03 03:49:39;;;;;;;0.43;0.43;;;10.10;92.30;;;;;;2056800;28;20591;-64
2021/08/03 03:50:51;;;;;;;0.93;0.88;;;10.10;92.30;;;;;;2057289;28;20232;-65
2021/08/03 03:51:52;;;;;;;0.40;0.40;;;10.10;92.50;;;;;;2064353;28;20174;-64
2021/08/03 03:53:05;;;;;;;0.50;0.50;;;10.10;92.50;;;;;;2064196;28;20214;-64
2021/08/03 03:54:11;;;;;;;0.50;0.50;;;10.10;92.50;;;;;;2064269;28;20602;-64
2021/08/03 03:55:19;;;;;;;0.40;0.40;;;10.10;92.60;;;;;;2064087;28;20194;-64
2021/08/03 03:56:29;;;;;;;0.45;0.45;;;10.10;92.50;;;;;;2064271;28;20194;-65
2021/08/03 03:57:31;;;;;;;0.30;0.30;;;10.10;92.50;;;;;;2064205;28;20166;-64
2021/08/03 03:58:39;;;;;;;0.75;0.50;;;10.10;92.50;;;;;;2064341;28;20206;-65
2021/08/03 03:59:43;;;;;;;0.43;0.43;;;10.10;92.50;;;;;;2064345;28;20167;-64
2021/08/03 04:00:44;;;;;;;0.30;0.30;;;10.10;92.40;;;;;;2064326;28;20185;-65
2021/08/03 04:01:49;;;;;;;0.70;0.70;;;10.20;92.40;;;;;;2056398;28;20183;-64
2021/08/03 04:02:50;;;;;;;0.30;0.30;;;10.20;92.50;;;;;;2054637;28;20262;-65
2021/08/03 04:03:55;;;;;;;5.18;0.68;;;10.20;92.60;;;;;;2050095;28;20187;-64
2021/08/03 04:04:59;;;;;;;0.40;0.40;;;10.10;92.50;;;;;;2048144;29;20278;-65
2021/08/03 04:06:01;;;;;;;0.30;0.30;;;10.20;92.50;;;;;;2040794;29;20200;-64
2021/08/03 04:07:02;;;;;;;0.28;0.28;;;10.20;92.40;;;;;;2056057;28;20187;-64
2021/08/03 04:08:07;;;;;;;0.50;0.50;;;10.20;92.30;;;;;;2056118;28;20207;-64
2021/08/03 04:09:20;;;;;;;0.65;0.65;;;10.20;92.20;;;;;;2056127;28;20658;-65
2021/08/03 04:10:34;;;;;;;0.60;0.60;;;10.20;92.20;;;;;;2048365;29;20183;-65
2021/08/03 04:11:44;;;;;;;3.70;0.70;;;10.20;92.30;;;;;;2049947;28;20732;-64
2021/08/03 04:12:46;;;;;;;0.30;0.30;;;10.20;92.40;;;;;;2040213;29;20670;-64
2021/08/03 04:13:50;;;;;;;0.30;0.30;;;10.20;92.50;;;;;;2040498;29;20199;-64
2021/08/03 04:14:50;;;;;;;0.55;0.50;;;10.10;92.50;;;;;;2040697;29;20211;-64
2021/08/03 04:15:51;;;;;;;1.70;0.77;;;10.10;92.70;;;;;;2048176;29;20199;-64
2021/08/03 04:16:54;;;;;;;0.20;0.20;;;10.00;92.70;;;;;;2048710;29;20186;-64
2021/08/03 04:17:55;;;;;;;0.70;0.60;;;10.00;92.90;;;;;;2048154;29;20594;-64
2021/08/03 04:18:56;;;;;;;0.50;0.50;;;9.90;93.00;;;;;;2048114;29;20203;-64
2021/08/03 04:19:56;;;;;;;0.83;0.83;;;9.90;93.10;;;;;;2048659;29;20187;-65
2021/08/03 04:20:57;;;;;;;0.60;0.60;;;9.80;93.20;;;;;;2048804;28;20295;-64
2021/08/03 04:21:58;;;;;;;0.50;0.50;;;9.80;93.40;;;;;;2048658;29;20179;-64
2021/08/03 04:22:59;;;;;;;4.47;0.77;;;9.70;93.40;;;;;;2048782;29;20180;-65
2021/08/03 04:23:59;;;;;;;0.23;0.23;;;9.70;93.40;;;;;;2048630;29;20184;-65
2021/08/03 04:25:00;;;;;;;0.73;0.40;;;9.70;93.50;;;;;;2048749;28;20207;-64
2021/08/03 04:26:01;;;;;;;0.40;0.40;;;9.70;93.50;;;;;;2048794;28;20238;-64
2021/08/03 04:27:02;;;;;;;0.53;0.53;;;9.70;93.50;;;;;;2048754;28;20657;-65
2021/08/03 04:28:03;;;;;;;0.60;0.60;;;9.70;93.50;;;;;;2048852;28;20431;-64
2021/08/03 04:29:04;;;;;;;0.47;0.47;;;9.80;93.40;;;;;;2048831;29;20179;-65
2021/08/03 04:30:09;;;;;;;9.38;1.08;;;9.90;93.30;;;;;;2048710;28;20435;-64
2021/08/03 04:31:10;;;;;;;0.50;0.50;;;9.90;93.20;;;;;;2048818;28;20258;-64
2021/08/03 04:32:11;;;;;;;0.20;0.20;;;10.00;93.10;;;;;;2048760;28;20201;-64
2021/08/03 04:33:11;;;;;;;0.60;0.60;;;10.00;93.00;;;;;;2048780;29;20713;-65
2021/08/03 04:34:12;;;;;;;0.33;0.33;;;10.00;93.00;;;;;;2048792;29;20215;-64
2021/08/03 04:35:13;;;;;;;1.37;0.97;;;10.00;93.00;;;;;;2048638;29;20222;-65
2021/08/03 04:36:13;;;;;;;0.53;0.53;;;10.10;93.00;;;;;;2048623;28;20283;-65
2021/08/03 04:37:14;;;;;;;0.60;0.60;;;10.10;92.90;;;;;;2048595;28;20653;-65
2021/08/03 04:38:15;;;;;;;0.30;0.30;;;10.10;92.80;;;;;;2056065;28;20178;-65
2021/08/03 04:39:15;;;;;;;0.30;0.30;;;10.10;92.80;;;;;;2056046;28;20178;-65
2021/08/03 04:40:20;;;;;;;0.30;0.30;;;10.10;92.70;;;;;;2048515;29;20209;-65
2021/08/03 04:41:21;;;;;;;0.50;0.50;;;10.20;92.70;;;;;;2056176;28;20170;-65
2021/08/03 04:42:21;;;;;;;0.43;0.43;;;10.20;92.50;;;;;;2055842;28;20555;-65
2021/08/03 04:43:22;;;;;;;0.67;0.67;;;10.20;92.40;;;;;;2048730;28;20501;-65
2021/08/03 04:44:23;;;;;;;0.73;0.73;;;10.20;92.40;;;;;;2048524;29;20596;-65
2021/08/03 04:45:24;;;;;;;0.30;0.30;;;10.20;92.30;;;;;;2048686;28;20202;-65
2021/08/03 04:46:24;;;;;;;0.50;0.50;;;10.20;92.30;;;;;;2055895;28;20214;-65
2021/08/03 04:47:25;;;;;;;0.60;0.60;;;10.30;92.20;;;;;;2055921;28;20193;-65
2021/08/03 04:48:26;;;;;;;0.50;0.50;;;10.30;92.20;;;;;;2048718;28;20560;-65
2021/08/03 04:49:27;;;;;;;0.40;0.40;;;10.30;92.30;;;;;;2048612;28;20187;-64
2021/08/03 04:50:28;;;;;;;0.40;0.40;;;10.30;92.20;;;;;;2048625;28;20307;-65
2021/08/03 04:51:29;;;;;;;0.40;0.40;;;10.40;92.10;;;;;;2048542;29;20206;-64
2021/08/03 04:52:30;;;;;;;0.30;0.30;;;10.30;92.00;;;;;;2048600;29;20214;-64
2021/08/03 04:53:31;;;;;;;0.40;0.40;;;10.40;92.10;;;;;;2047495;28;20577;-65
2021/08/03 04:54:32;;;;;;;0.30;0.30;;;10.40;92.10;;;;;;2054410;28;20191;-65
2021/08/03 04:55:32;;;;;;;0.60;0.60;;;10.30;92.10;;;;;;2055946;28;20201;-65
2021/08/03 04:56:33;;;;;;;0.50;0.50;;;10.40;92.10;;;;;;2048311;28;20223;-65
2021/08/03 04:57:34;;;;;;;0.47;0.47;;;10.40;92.10;;;;;;2048446;28;20180;-65
2021/08/03 04:58:38;;;;;;;0.30;0.30;;;10.40;92.10;;;;;;2048457;29;20249;-65
2021/08/03 04:59:39;;;;;;;0.60;0.60;;;10.40;92.10;;;;;;2048338;29;20199;-65
2021/08/03 05:00:41;;;;;;;0.23;0.23;;;10.40;92.10;;;;;;2048498;28;20203;-65
2021/08/03 05:01:42;;;;;;;0.60;0.60;;;10.40;92.00;;;;;;2048426;28;20190;-65
2021/08/03 05:02:43;;;;;;;0.60;0.60;;;10.40;92.10;;;;;;2039838;29;20718;-65
2021/08/03 05:03:43;;;;;;;0.60;0.60;;;10.50;92.10;;;;;;2040087;29;20259;-65
2021/08/03 05:04:44;;;;;;;0.70;0.70;;;10.50;91.90;;;;;;2048463;28;20207;-65
2021/08/03 05:05:45;;;;;;;0.73;0.73;;;10.50;92.00;;;;;;2048390;28;20201;-65
2021/08/03 05:06:46;;;;;;;0.77;0.77;;;10.60;92.10;;;;;;2048471;28;20183;-65
2021/08/03 05:07:58;;;;;;;0.60;0.60;;;10.60;92.00;;;;;;2049258;29;20534;-65
2021/08/03 05:08:58;;;;;;;0.30;0.30;;;10.60;92.00;;;;;;2050032;28;20267;-64
2021/08/03 05:10:03;;;;;;;0.30;0.30;;;10.60;92.00;;;;;;2049969;29;20537;-65
2021/08/03 05:11:04;;;;;;;0.75;0.75;;;10.70;92.10;;;;;;2049427;29;20545;-65
2021/08/03 05:12:05;;;;;;;1.67;1.23;;;10.70;92.00;;;;;;2049443;29;20318;-65
2021/08/03 05:13:06;;;;;;;0.50;0.50;;;10.70;92.00;;;;;;2049960;28;20214;-65
2021/08/03 05:14:07;;;;;;;0.20;0.20;;;10.70;92.00;;;;;;2049493;29;20207;-65
2021/08/03 05:15:08;;;;;;;0.60;0.60;;;10.80;92.00;;;;;;2049379;29;20206;-64
2021/08/03 05:16:08;;;;;;;0.65;0.65;;;10.90;92.00;;;;;;2049277;29;20308;-65
2021/08/03 05:17:09;;;;;;;0.60;0.60;;;10.90;91.90;;;;;;2049307;29;20184;-65
2021/08/03 05:18:10;;;;;;;2.50;1.10;;;10.90;91.70;;;;;;2049860;28;20172;-65
2021/08/03 05:19:11;;;;;;;0.67;0.67;;;11.00;91.90;;;;;;2050015;28;20207;-65
2021/08/03 05:20:13;;;;;;;0.50;0.50;;;11.00;91.80;;;;;;2049909;28;20183;-65
2021/08/03 05:21:13;;;;;;;0.40;0.40;;;11.10;91.70;;;;;;2050003;28;20180;-65
2021/08/03 05:22:14;;;;;;;0.57;0.57;;;11.20;91.50;;;;;;2049910;29;20180;-64
2021/08/03 05:23:15;;;;;;;0.50;0.50;;;11.20;91.40;;;;;;2049924;29;20176;-65
2021/08/03 05:24:15;;;;;;;0.30;0.30;;;11.10;91.30;;;;;;2049768;29;20188;-65
2021/08/03 05:25:16;;;;;;;5.73;0.63;;;11.10;91.30;;;;;;2049966;28;20176;-65
2021/08/03 05:26:17;;;;;;;0.70;0.70;;;11.00;91.40;;;;;;2049853;29;20182;-65
2021/08/03 05:27:18;;;;;;;0.40;0.40;;;11.00;91.60;;;;;;2049163;29;20188;-65
2021/08/03 05:28:19;;;;;;;0.40;0.40;;;11.00;91.70;;;;;;2049271;29;20184;-65
2021/08/03 05:29:19;;;;;;;0.30;0.30;;;11.00;91.70;;;;;;2049976;28;20275;-65
2021/08/03 05:30:20;;;;;;;0.30;0.30;;;11.00;91.70;;;;;;2049848;28;20259;-65
2021/08/03 05:31:21;;;;;;;0.50;0.50;;;11.10;91.60;;;;;;2049947;28;20678;-65
2021/08/03 05:32:22;;;;;;;0.60;0.60;;;11.20;91.60;;;;;;2049817;29;20663;-65
2021/08/03 05:33:22;;;;;;;0.33;0.33;;;11.20;91.50;;;;;;2049922;28;20179;-65
2021/08/03 05:34:23;;;;;;;0.20;0.20;;;11.20;91.50;;;;;;2049753;28;20195;-65
2021/08/03 05:35:24;;;;;;;0.50;0.50;;;11.20;91.50;;;;;;2049947;28;20203;-65
2021/08/03 05:36:24;;;;;;;0.73;0.73;;;11.30;91.90;;;;;;2049772;28;20219;-65